Time;durP1;ratioP1;P1;durP2;ratioP2;P2;SDS_P1;SDS_P2;PMS_P1;PMS_P2;Temp;Humidity;BMP_temperature;BMP_pressure;BME280_temperature;BME280_humidity;BME280_pressure;Samples;Min_cycle;Max_cycle;Signal;HPM_P1;HPM_P2
2022/09/10 00:01:48;;;;;;;4.45;1.60;;;21.90;71.00;;;;;;5094238;28;20020;-73
2022/09/10 00:04:14;;;;;;;3.88;1.23;;;21.90;71.00;;;;;;5094219;28;20105;-73
2022/09/10 00:06:40;;;;;;;4.38;1.40;;;21.90;71.00;;;;;;5092822;28;20020;-73
2022/09/10 00:09:06;;;;;;;7.05;1.20;;;21.90;71.20;;;;;;5063531;28;20020;-73
2022/09/10 00:11:34;;;;;;;4.68;1.27;;;21.90;71.10;;;;;;5072877;28;20017;-74
2022/09/10 00:14:00;;;;;;;2.47;1.17;;;21.90;71.10;;;;;;5056441;28;20042;-73
2022/09/10 00:16:26;;;;;;;3.75;1.40;;;21.90;71.10;;;;;;5092740;28;20019;-73
2022/09/10 00:18:52;;;;;;;4.13;1.38;;;21.90;71.20;;;;;;5113498;28;20027;-73
2022/09/10 00:21:19;;;;;;;20.23;1.77;;;21.90;71.20;;;;;;5113195;28;20028;-73
2022/09/10 00:23:45;;;;;;;4.18;0.98;;;21.90;71.10;;;;;;5114245;28;20023;-73
2022/09/10 00:26:30;;;;;;;4.18;1.23;;;21.90;71.20;;;;;;5114501;28;20096;-73
2022/09/10 00:28:58;;;;;;;3.75;1.20;;;21.90;71.20;;;;;;5113158;28;20008;-73
2022/09/10 00:31:24;;;;;;;8.52;1.80;;;21.90;71.20;;;;;;5114376;28;20028;-73
2022/09/10 00:33:50;;;;;;;5.38;1.80;;;21.90;71.20;;;;;;5114028;28;20522;-73
2022/09/10 00:36:23;;;;;;;5.40;1.25;;;21.90;71.10;;;;;;5114174;28;20035;-73
2022/09/10 00:38:49;;;;;;;3.33;1.40;;;21.90;71.10;;;;;;5097001;28;20024;-73
2022/09/10 00:41:15;;;;;;;1.52;0.95;;;21.90;71.10;;;;;;5096093;28;20027;-73
2022/09/10 00:44:05;;;;;;;3.97;1.35;;;21.90;71.10;;;;;;5112901;28;20383;-73
2022/09/10 00:46:31;;;;;;;2.65;1.23;;;21.90;71.00;;;;;;5100279;28;20031;-73
2022/09/10 00:48:57;;;;;;;2.58;1.27;;;21.90;71.20;;;;;;5113682;28;20047;-73
2022/09/10 00:51:25;;;;;;;4.60;1.30;;;21.90;71.20;;;;;;5095912;28;20517;-73
2022/09/10 00:53:51;;;;;;;3.00;1.17;;;21.90;71.10;;;;;;5095864;28;20026;-73
2022/09/10 00:56:16;;;;;;;3.28;1.10;;;21.90;71.10;;;;;;5113812;28;20023;-73
2022/09/10 00:58:42;;;;;;;4.38;1.30;;;21.90;71.10;;;;;;5095444;28;20035;-73
2022/09/10 01:01:08;;;;;;;3.03;1.13;;;21.90;71.20;;;;;;5095582;28;20023;-73
2022/09/10 01:03:34;;;;;;;2.83;1.33;;;21.90;71.20;;;;;;5113578;28;20034;-73
2022/09/10 01:06:00;;;;;;;4.78;1.48;;;21.90;71.10;;;;;;5095645;28;20624;-73
2022/09/10 01:08:28;;;;;;;4.70;1.38;;;21.80;71.10;;;;;;5097755;28;20033;-74
2022/09/10 01:11:10;;;;;;;4.88;1.10;;;21.90;71.20;;;;;;5072813;28;20020;-74
2022/09/10 01:14:00;;;;;;;1.45;0.85;;;21.90;71.10;;;;;;5072516;28;20082;-74
2022/09/10 01:16:29;;;;;;;3.60;1.30;;;21.90;71.10;;;;;;5091642;28;20531;-74
2022/09/10 01:19:09;;;;;;;5.15;1.00;;;21.80;71.10;;;;;;5113193;28;20107;-74
2022/09/10 01:22:12;;;;;;;2.35;0.88;;;21.90;71.20;;;;;;5113286;28;20028;-74
2022/09/10 01:24:54;;;;;;;3.03;1.08;;;21.80;71.10;;;;;;5113130;28;20062;-74
2022/09/10 01:27:32;;;;;;;6.60;1.00;;;21.80;71.10;;;;;;5113227;28;20028;-74
2022/09/10 01:30:02;;;;;;;4.57;1.30;;;21.80;71.10;;;;;;5112957;28;20107;-74
2022/09/10 01:32:43;;;;;;;3.88;1.23;;;21.80;72.20;;;;;;5089554;28;20031;-73
2022/09/10 01:35:38;;;;;;;7.63;1.40;;;21.80;71.10;;;;;;5077313;28;20028;-73
2022/09/10 01:38:07;;;;;;;4.30;1.17;;;21.80;71.20;;;;;;5076177;28;20052;-73
2022/09/10 01:40:33;;;;;;;3.20;1.48;;;21.80;71.30;;;;;;5089838;28;20047;-73
2022/09/10 01:43:06;;;;;;;4.75;1.20;;;21.80;71.20;;;;;;5072132;28;20391;-73
2022/09/10 01:45:50;;;;;;;6.32;1.25;;;21.80;71.20;;;;;;5090623;28;20031;-73
2022/09/10 01:48:25;;;;;;;5.15;1.38;;;21.80;71.20;;;;;;5090568;28;20048;-73
2022/09/10 01:50:59;;;;;;;6.43;1.20;;;21.80;71.10;;;;;;5091631;28;20020;-73
2022/09/10 01:53:32;;;;;;;2.20;1.10;;;21.80;71.10;;;;;;5090660;28;20016;-74
2022/09/10 01:56:09;;;;;;;4.07;1.00;;;21.80;71.20;;;;;;5092368;28;20035;-74
2022/09/10 01:58:36;;;;;;;3.85;1.27;;;21.80;72.20;;;;;;5092322;28;20028;-73
2022/09/10 02:01:32;;;;;;;4.78;1.10;;;21.80;71.20;;;;;;5090440;28;20024;-73
2022/09/10 02:04:00;;;;;;;3.80;1.08;;;21.80;71.20;;;;;;5091064;28;20525;-73
2022/09/10 02:06:28;;;;;;;3.78;1.45;;;21.80;71.20;;;;;;5092374;28;20131;-73
2022/09/10 02:08:55;;;;;;;5.07;1.27;;;21.80;71.20;;;;;;5063318;28;20075;-73
2022/09/10 02:11:21;;;;;;;2.15;1.20;;;21.80;71.30;;;;;;5071107;28;20040;-73
2022/09/10 02:13:46;;;;;;;3.22;0.90;;;21.80;71.30;;;;;;5070646;28;20025;-73
2022/09/10 02:16:32;;;;;;;4.90;1.10;;;21.80;71.30;;;;;;5090007;28;20162;-73
2022/09/10 02:18:57;;;;;;;2.33;1.10;;;21.80;71.20;;;;;;5099735;28;20084;-73
2022/09/10 02:21:23;;;;;;;2.03;0.90;;;21.80;71.20;;;;;;5098715;28;20471;-73
2022/09/10 02:24:04;;;;;;;4.97;1.10;;;21.80;71.30;;;;;;5098562;28;20070;-73
2022/09/10 02:26:33;;;;;;;3.65;1.23;;;21.80;71.20;;;;;;5115355;28;20031;-73
2022/09/10 02:29:00;;;;;;;4.45;1.20;;;21.80;71.30;;;;;;5098896;28;20069;-73
2022/09/10 02:31:26;;;;;;;3.80;1.55;;;21.80;71.30;;;;;;5115641;28;20035;-73
2022/09/10 02:33:53;;;;;;;3.97;1.58;;;21.80;71.30;;;;;;5115371;28;20027;-73
2022/09/10 02:36:19;;;;;;;3.40;1.40;;;21.80;71.30;;;;;;5098557;28;20030;-73
2022/09/10 02:38:44;;;;;;;4.38;1.40;;;21.80;71.30;;;;;;5115392;28;20464;-73
2022/09/10 02:41:10;;;;;;;3.13;1.30;;;21.80;71.30;;;;;;5116157;28;20051;-73
2022/09/10 02:43:37;;;;;;;4.72;1.10;;;21.80;71.30;;;;;;5116344;28;20551;-73
2022/09/10 02:46:06;;;;;;;4.00;1.40;;;21.80;71.30;;;;;;5114890;28;20605;-73
2022/09/10 02:48:31;;;;;;;4.25;1.15;;;21.80;71.20;;;;;;5115033;28;20058;-73
2022/09/10 02:50:57;;;;;;;5.07;1.15;;;21.70;71.20;;;;;;5116198;28;20024;-73
2022/09/10 02:53:23;;;;;;;2.28;0.80;;;21.80;71.30;;;;;;5116346;28;20016;-73
2022/09/10 02:55:48;;;;;;;2.13;0.98;;;21.70;71.20;;;;;;5114622;28;20030;-73
2022/09/10 02:58:14;;;;;;;4.80;1.35;;;21.80;71.30;;;;;;5116128;28;20105;-73
2022/09/10 03:00:40;;;;;;;3.60;0.98;;;21.70;71.30;;;;;;5114916;28;20123;-73
2022/09/10 03:03:06;;;;;;;6.18;1.60;;;21.70;71.30;;;;;;5097927;28;20449;-73
2022/09/10 03:05:32;;;;;;;3.58;0.95;;;21.70;71.20;;;;;;5097844;28;20028;-73
2022/09/10 03:07:59;;;;;;;6.03;1.17;;;21.70;71.30;;;;;;5108115;28;20027;-73
2022/09/10 03:10:24;;;;;;;4.63;0.90;;;21.70;71.30;;;;;;5073792;28;20052;-73
2022/09/10 03:12:50;;;;;;;2.90;1.02;;;21.70;71.30;;;;;;5075048;28;20058;-73
2022/09/10 03:15:19;;;;;;;3.40;0.95;;;21.70;71.30;;;;;;5075046;28;20564;-73
2022/09/10 03:17:45;;;;;;;2.75;1.00;;;21.70;71.30;;;;;;5073785;28;20066;-73
2022/09/10 03:20:11;;;;;;;6.25;0.98;;;21.70;72.30;;;;;;5075115;28;20020;-73
2022/09/10 03:22:37;;;;;;;11.68;1.20;;;21.70;71.30;;;;;;5073881;28;20103;-73
2022/09/10 03:25:03;;;;;;;3.30;1.13;;;21.70;71.40;;;;;;5074626;28;20094;-73
2022/09/10 03:27:29;;;;;;;2.47;0.93;;;21.70;71.40;;;;;;5073718;28;20492;-73
2022/09/10 03:29:55;;;;;;;2.63;1.00;;;21.70;71.40;;;;;;5074769;28;20028;-73
2022/09/10 03:32:20;;;;;;;4.22;0.93;;;21.70;71.40;;;;;;5074983;28;20024;-73
2022/09/10 03:34:47;;;;;;;3.03;0.90;;;21.70;71.50;;;;;;5073526;28;20381;-73
2022/09/10 03:37:14;;;;;;;3.67;1.10;;;21.70;71.40;;;;;;5073403;28;20028;-73
2022/09/10 03:39:39;;;;;;;1.85;0.80;;;21.70;71.40;;;;;;5074400;28;20020;-72
2022/09/10 03:42:06;;;;;;;3.30;1.00;;;21.70;71.50;;;;;;5073553;28;20032;-73
2022/09/10 03:44:32;;;;;;;3.15;0.95;;;21.70;71.40;;;;;;5073513;28;20090;-73
2022/09/10 03:46:59;;;;;;;2.78;0.80;;;21.70;71.50;;;;;;5073114;28;20013;-73
2022/09/10 03:49:25;;;;;;;4.95;1.20;;;21.70;71.50;;;;;;5073268;28;20044;-73
2022/09/10 03:51:50;;;;;;;1.25;0.60;;;21.60;71.40;;;;;;5074587;28;20377;-73
2022/09/10 03:54:16;;;;;;;3.30;0.82;;;21.70;71.50;;;;;;5074312;28;20047;-73
2022/09/10 03:56:43;;;;;;;2.65;1.00;;;21.70;71.50;;;;;;5073292;28;20016;-73
2022/09/10 03:59:08;;;;;;;3.47;1.10;;;21.60;71.40;;;;;;5074054;28;20102;-73
2022/09/10 04:01:34;;;;;;;3.08;1.10;;;21.60;71.40;;;;;;5074288;28;20488;-73
2022/09/10 04:04:01;;;;;;;1.95;0.77;;;21.60;71.40;;;;;;5074240;28;20557;-73
2022/09/10 04:06:27;;;;;;;1.27;0.90;;;21.60;71.40;;;;;;5074251;28;20104;-73
2022/09/10 04:08:52;;;;;;;5.55;1.08;;;21.60;71.40;;;;;;5073832;28;20530;-74
2022/09/10 04:11:19;;;;;;;6.07;1.98;;;21.70;71.50;;;;;;5072942;28;20496;-73
2022/09/10 04:13:47;;;;;;;1.98;0.90;;;21.60;71.50;;;;;;5073938;28;20048;-72
2022/09/10 04:16:15;;;;;;;1.50;0.88;;;21.60;71.50;;;;;;5088213;28;20471;-72
2022/09/10 04:18:40;;;;;;;3.05;1.17;;;21.60;71.60;;;;;;5114713;28;20084;-73
2022/09/10 04:21:06;;;;;;;4.47;1.00;;;21.60;71.60;;;;;;5113276;28;20027;-73
2022/09/10 04:23:32;;;;;;;3.45;1.05;;;21.60;71.60;;;;;;5114289;28;20110;-73
2022/09/10 04:25:58;;;;;;;3.35;0.80;;;21.60;71.60;;;;;;5113075;28;20475;-73
2022/09/10 04:28:23;;;;;;;8.73;1.35;;;21.60;71.70;;;;;;5112778;28;20036;-73
2022/09/10 04:30:50;;;;;;;4.00;1.20;;;21.60;71.80;;;;;;5114388;28;20031;-73
2022/09/10 04:33:16;;;;;;;5.95;1.05;;;21.70;71.80;;;;;;5114396;28;20028;-73
2022/09/10 04:35:42;;;;;;;7.15;0.93;;;21.60;71.80;;;;;;5114113;28;20098;-73
2022/09/10 04:38:08;;;;;;;10.18;1.05;;;21.60;71.80;;;;;;5113595;28;20161;-73
2022/09/10 04:40:33;;;;;;;4.18;1.33;;;21.60;71.80;;;;;;5112941;28;20091;-73
2022/09/10 04:42:59;;;;;;;2.80;1.00;;;21.60;71.80;;;;;;5114038;28;20032;-73
2022/09/10 04:45:25;;;;;;;4.75;1.20;;;21.60;71.70;;;;;;5112817;28;20024;-73
2022/09/10 04:47:53;;;;;;;5.35;1.10;;;21.70;71.70;;;;;;5113743;28;20024;-73
2022/09/10 04:50:19;;;;;;;1.77;0.63;;;21.70;71.70;;;;;;5112656;28;20039;-73
2022/09/10 04:52:45;;;;;;;3.92;0.90;;;21.70;71.70;;;;;;5112463;28;20023;-73
2022/09/10 04:55:10;;;;;;;3.10;1.00;;;21.70;71.70;;;;;;5113692;28;20043;-73
2022/09/10 04:57:36;;;;;;;4.65;1.20;;;21.60;71.80;;;;;;5113872;28;20495;-73
2022/09/10 05:00:06;;;;;;;1.98;0.77;;;21.70;71.70;;;;;;5112395;28;20024;-73
2022/09/10 05:02:33;;;;;;;2.60;0.93;;;21.60;71.70;;;;;;5112457;28;20034;-73
2022/09/10 05:04:58;;;;;;;2.08;0.70;;;21.70;71.70;;;;;;5112468;28;20047;-73
2022/09/10 05:07:24;;;;;;;2.47;1.10;;;21.70;71.70;;;;;;5113362;28;20518;-73
2022/09/10 05:09:51;;;;;;;3.55;1.00;;;21.70;71.70;;;;;;5079668;28;20070;-73
2022/09/10 05:12:18;;;;;;;1.85;0.95;;;21.70;71.70;;;;;;5091271;28;20058;-73
2022/09/10 05:14:44;;;;;;;3.97;0.80;;;21.70;71.70;;;;;;5091596;28;20020;-73
2022/09/10 05:17:10;;;;;;;10.52;1.00;;;21.70;71.70;;;;;;5106976;28;20024;-73
2022/09/10 05:19:35;;;;;;;23.23;2.15;;;21.70;71.80;;;;;;5112211;28;20489;-73
2022/09/10 05:22:01;;;;;;;4.78;1.05;;;21.70;71.70;;;;;;5112138;28;20023;-73
2022/09/10 05:24:27;;;;;;;1.92;0.80;;;21.70;71.70;;;;;;5110976;28;20024;-73
2022/09/10 05:26:52;;;;;;;3.25;1.00;;;21.70;71.80;;;;;;5111326;28;20023;-73
2022/09/10 05:29:18;;;;;;;4.28;0.90;;;21.60;71.70;;;;;;5111512;28;20020;-73
2022/09/10 05:31:44;;;;;;;1.38;0.75;;;21.60;71.70;;;;;;5112125;28;20028;-73
2022/09/10 05:34:09;;;;;;;3.88;0.98;;;21.60;71.70;;;;;;5113027;28;20016;-73
2022/09/10 05:36:35;;;;;;;1.55;0.75;;;21.60;71.70;;;;;;5111688;28;20028;-73
2022/09/10 05:39:02;;;;;;;3.50;1.02;;;21.60;71.70;;;;;;5112067;28;20028;-73
2022/09/10 05:41:29;;;;;;;2.80;1.00;;;21.60;71.70;;;;;;5113246;28;20024;-73
2022/09/10 05:43:55;;;;;;;3.42;1.05;;;21.60;71.80;;;;;;5095303;28;20096;-73
2022/09/10 05:46:22;;;;;;;3.20;1.05;;;21.60;71.70;;;;;;5112677;28;20089;-73
2022/09/10 05:48:47;;;;;;;2.47;1.00;;;21.60;71.70;;;;;;5112351;28;20423;-73
2022/09/10 05:51:13;;;;;;;1.38;0.82;;;21.60;71.80;;;;;;5112463;28;20108;-73
2022/09/10 05:53:40;;;;;;;3.35;1.00;;;21.60;71.80;;;;;;5113211;28;20149;-73
2022/09/10 05:56:06;;;;;;;2.08;0.88;;;21.60;71.80;;;;;;5112671;28;20024;-73
2022/09/10 05:58:33;;;;;;;1.25;0.52;;;21.60;71.70;;;;;;5112829;28;20035;-73
2022/09/10 06:00:59;;;;;;;2.47;0.90;;;21.60;71.80;;;;;;5112807;28;20023;-73
2022/09/10 06:03:25;;;;;;;1.67;0.82;;;21.60;71.70;;;;;;5112810;28;20047;-73
2022/09/10 06:05:51;;;;;;;1.23;0.75;;;21.60;71.80;;;;;;5112790;28;20446;-73
2022/09/10 06:08:20;;;;;;;1.45;0.77;;;21.60;71.70;;;;;;5082663;28;20495;-73
2022/09/10 06:11:00;;;;;;;3.28;1.00;;;21.60;71.80;;;;;;5072171;28;20081;-73
2022/09/10 06:13:26;;;;;;;10.63;1.10;;;21.60;72.10;;;;;;5072186;28;20028;-73
2022/09/10 06:15:52;;;;;;;1.50;0.80;;;21.60;71.80;;;;;;5081255;28;20394;-73
2022/09/10 06:18:18;;;;;;;1.67;0.90;;;21.60;71.80;;;;;;5112512;28;20501;-73
2022/09/10 06:20:44;;;;;;;4.93;0.70;;;21.60;71.80;;;;;;5111515;28;20059;-73
2022/09/10 06:23:10;;;;;;;1.35;0.70;;;21.60;71.80;;;;;;5112361;28;20028;-74
2022/09/10 06:25:36;;;;;;;6.57;0.90;;;21.60;71.90;;;;;;5111306;28;20046;-73
2022/09/10 06:28:02;;;;;;;2.33;0.63;;;21.60;71.80;;;;;;5111648;28;20099;-73
2022/09/10 06:30:28;;;;;;;1.85;1.00;;;21.60;71.80;;;;;;5112408;28;20030;-73
2022/09/10 06:32:53;;;;;;;4.00;1.00;;;21.60;71.90;;;;;;5110913;28;20057;-73
2022/09/10 06:35:20;;;;;;;2.17;0.95;;;21.60;71.80;;;;;;5112402;28;20023;-74
2022/09/10 06:37:46;;;;;;;3.35;0.77;;;21.60;71.80;;;;;;5112538;28;20027;-73
2022/09/10 06:40:12;;;;;;;2.15;0.70;;;21.50;71.80;;;;;;5112218;28;20028;-73
2022/09/10 06:42:37;;;;;;;8.60;1.05;;;21.50;71.80;;;;;;5112417;28;20028;-73
2022/09/10 06:45:04;;;;;;;1.08;0.75;;;21.50;71.90;;;;;;5111043;28;20059;-73
2022/09/10 06:47:30;;;;;;;1.20;0.55;;;21.60;71.80;;;;;;5112123;28;20024;-73
2022/09/10 06:49:55;;;;;;;2.30;1.02;;;21.60;71.80;;;;;;5110988;28;20418;-73
2022/09/10 06:52:21;;;;;;;3.35;0.90;;;21.50;71.70;;;;;;5112154;28;20028;-73
2022/09/10 06:54:47;;;;;;;3.63;0.88;;;21.50;71.70;;;;;;5112325;28;20031;-73
2022/09/10 06:57:12;;;;;;;2.03;0.75;;;21.50;71.70;;;;;;5112156;28;20020;-73
2022/09/10 06:59:38;;;;;;;1.40;0.77;;;21.60;71.80;;;;;;5111211;28;20056;-73
2022/09/10 07:02:04;;;;;;;2.20;0.82;;;21.50;71.80;;;;;;5115363;28;20027;-73
2022/09/10 07:04:30;;;;;;;2.47;0.82;;;21.50;71.70;;;;;;5116065;28;20066;-73
2022/09/10 07:06:56;;;;;;;2.45;0.90;;;21.60;71.80;;;;;;5100496;28;20037;-73
2022/09/10 07:09:22;;;;;;;1.67;0.60;;;21.50;71.70;;;;;;5080367;28;20108;-73
2022/09/10 07:11:47;;;;;;;2.88;1.08;;;21.50;71.80;;;;;;5079477;28;20099;-73
2022/09/10 07:14:13;;;;;;;1.60;0.55;;;21.50;71.80;;;;;;5095745;28;20112;-73
2022/09/10 07:16:44;;;;;;;3.40;0.90;;;21.50;71.90;;;;;;5094203;28;20030;-74
2022/09/10 07:19:11;;;;;;;2.67;0.73;;;21.50;71.80;;;;;;5094642;28;20027;-73
2022/09/10 07:21:36;;;;;;;2.97;0.90;;;21.50;71.90;;;;;;5095612;28;20028;-73
2022/09/10 07:24:03;;;;;;;3.67;0.80;;;21.50;71.90;;;;;;5094220;28;20022;-73
2022/09/10 07:26:28;;;;;;;2.33;0.70;;;21.50;71.90;;;;;;5095274;28;20464;-73
2022/09/10 07:28:54;;;;;;;2.15;0.70;;;21.50;72.00;;;;;;5094567;28;20024;-73
2022/09/10 07:31:22;;;;;;;2.92;0.90;;;21.50;72.00;;;;;;5077150;28;20484;-73
2022/09/10 07:33:48;;;;;;;3.35;0.90;;;21.50;72.00;;;;;;5077595;28;20048;-73
2022/09/10 07:36:14;;;;;;;1.92;0.70;;;21.50;72.00;;;;;;5094207;28;20050;-74
2022/09/10 07:38:40;;;;;;;3.25;0.63;;;21.50;72.00;;;;;;5093950;28;20028;-73
2022/09/10 07:41:08;;;;;;;1.40;0.80;;;21.50;72.00;;;;;;5094161;28;20380;-73
2022/09/10 07:43:34;;;;;;;2.33;0.85;;;21.50;72.00;;;;;;5077820;28;20459;-73
2022/09/10 07:46:00;;;;;;;3.13;0.90;;;21.50;72.00;;;;;;5095117;28;20099;-74
2022/09/10 07:48:27;;;;;;;2.13;0.80;;;21.50;72.10;;;;;;5094877;28;20044;-74
2022/09/10 07:50:59;;;;;;;1.40;0.90;;;21.50;72.00;;;;;;5095274;28;20073;-74
2022/09/10 07:53:25;;;;;;;1.15;0.77;;;21.50;72.00;;;;;;5093990;28;20464;-73
2022/09/10 07:55:58;;;;;;;1.80;0.80;;;21.50;72.00;;;;;;5095153;28;20032;-74
2022/09/10 07:58:23;;;;;;;1.48;0.75;;;21.50;72.00;;;;;;5093942;28;20031;-73
2022/09/10 08:00:49;;;;;;;2.35;0.68;;;21.50;72.00;;;;;;5094818;28;20024;-73
2022/09/10 08:03:17;;;;;;;1.98;0.68;;;21.50;72.10;;;;;;5094981;28;20024;-73
2022/09/10 08:05:42;;;;;;;0.93;0.65;;;21.50;72.00;;;;;;5094701;28;20026;-73
2022/09/10 08:08:09;;;;;;;1.58;0.73;;;21.50;72.00;;;;;;5090059;28;20108;-73
2022/09/10 08:10:35;;;;;;;2.25;0.75;;;21.50;72.00;;;;;;5074642;28;20116;-73
2022/09/10 08:13:00;;;;;;;0.80;0.70;;;21.50;72.00;;;;;;5073767;28;20075;-73
2022/09/10 08:15:26;;;;;;;1.38;0.60;;;21.50;72.10;;;;;;5076253;28;20094;-73
2022/09/10 08:17:52;;;;;;;1.90;0.88;;;21.50;72.10;;;;;;5115229;28;20050;-73
2022/09/10 08:20:18;;;;;;;0.73;0.52;;;21.50;72.10;;;;;;5114761;28;20050;-73
2022/09/10 08:22:43;;;;;;;5.20;1.20;;;21.50;72.10;;;;;;5113202;28;20102;-73
2022/09/10 08:25:09;;;;;;;4.88;1.08;;;21.40;70.30;;;;;;5089695;28;20043;-73
2022/09/10 08:27:35;;;;;;;4.43;1.15;;;21.40;69.70;;;;;;5092696;28;20430;-73
2022/09/10 08:30:01;;;;;;;5.38;1.42;;;21.20;69.10;;;;;;5093787;28;20091;-73
2022/09/10 08:32:27;;;;;;;3.65;0.95;;;21.10;69.10;;;;;;5093619;28;20036;-73
2022/09/10 08:34:54;;;;;;;8.25;1.27;;;21.00;68.70;;;;;;5094145;28;20016;-73
2022/09/10 08:37:19;;;;;;;5.00;1.02;;;21.00;68.80;;;;;;5092093;28;20035;-72
2022/09/10 08:39:45;;;;;;;5.55;1.45;;;20.90;68.70;;;;;;5093625;28;20020;-72
2022/09/10 08:42:18;;;;;;;5.55;1.60;;;20.90;68.60;;;;;;5093484;28;20024;-72
2022/09/10 08:44:53;;;;;;;4.72;1.20;;;20.90;68.30;;;;;;5092261;28;20046;-72
2022/09/10 08:47:29;;;;;;;4.68;0.95;;;20.80;68.00;;;;;;5075885;28;20024;-72
2022/09/10 08:49:56;;;;;;;5.35;1.35;;;20.70;68.20;;;;;;5092224;28;20511;-72
2022/09/10 08:52:32;;;;;;;5.22;1.35;;;20.70;68.30;;;;;;5092085;28;20030;-72
2022/09/10 08:55:16;;;;;;;5.40;1.00;;;20.70;68.50;;;;;;5092410;28;20023;-73
2022/09/10 08:57:48;;;;;;;5.50;1.42;;;20.70;68.50;;;;;;5093157;28;20111;-73
2022/09/10 09:00:21;;;;;;;3.67;1.20;;;20.70;68.60;;;;;;5093422;28;20392;-73
2022/09/10 09:03:01;;;;;;;3.80;0.93;;;20.70;68.30;;;;;;5092212;28;20024;-73
2022/09/10 09:05:27;;;;;;;5.88;1.20;;;20.60;68.20;;;;;;5093314;28;20031;-74
2022/09/10 09:07:52;;;;;;;4.22;1.02;;;20.60;68.00;;;;;;5089392;28;20020;-77
2022/09/10 09:10:24;;;;;;;6.60;1.20;;;20.60;68.20;;;;;;5067577;28;20498;-77
2022/09/10 09:13:11;;;;;;;4.00;0.70;;;20.80;68.00;;;;;;5093744;28;20047;-80
2022/09/10 09:15:45;;;;;;;2.92;1.08;;;21.00;67.90;;;;;;5093583;28;20411;-79
2022/09/10 09:18:32;;;;;;;3.25;0.80;;;21.20;67.50;;;;;;5093928;28;20020;-81
2022/09/10 09:21:06;;;;;;;2.85;1.10;;;21.30;67.20;;;;;;5093568;28;20028;-80
2022/09/10 09:23:41;;;;;;;4.05;1.08;;;21.40;67.00;;;;;;5075958;28;20030;-80
2022/09/10 09:26:11;;;;;;;2.75;0.80;;;21.50;67.00;;;;;;5075996;28;20060;-80
2022/09/10 09:28:44;;;;;;;2.15;0.93;;;21.50;66.80;;;;;;5075379;28;20523;-80
2022/09/10 09:31:13;;;;;;;2.33;0.82;;;21.60;66.70;;;;;;5093638;28;20388;-81
2022/09/10 09:33:38;;;;;;;3.45;1.08;;;21.60;66.50;;;;;;5075472;28;20065;-80
2022/09/10 09:36:04;;;;;;;4.20;1.00;;;21.70;66.60;;;;;;5075549;28;20036;-80
2022/09/10 09:38:40;;;;;;;1.60;0.82;;;21.70;67.40;;;;;;5075173;28;20408;-81
2022/09/10 09:41:19;;;;;;;3.05;1.00;;;21.80;66.30;;;;;;5075097;28;20467;-80
2022/09/10 09:43:58;;;;;;;3.85;1.15;;;21.80;66.40;;;;;;5092153;28;20028;-81
2022/09/10 09:46:24;;;;;;;2.67;1.15;;;21.90;66.10;;;;;;5092037;28;20016;-80
2022/09/10 09:48:53;;;;;;;3.10;1.40;;;21.90;66.10;;;;;;5093025;28;20123;-80
2022/09/10 09:51:20;;;;;;;4.60;1.25;;;22.00;66.00;;;;;;5075735;28;20020;-80
2022/09/10 09:53:48;;;;;;;2.85;1.00;;;22.00;65.90;;;;;;5075258;28;20020;-80
2022/09/10 09:56:29;;;;;;;1.85;1.08;;;22.10;65.80;;;;;;5091708;28;20031;-80
2022/09/10 09:58:57;;;;;;;4.38;1.48;;;22.10;65.80;;;;;;5092182;28;20553;-80
2022/09/10 10:01:24;;;;;;;3.13;1.00;;;22.10;65.60;;;;;;5075885;28;20032;-80
2022/09/10 10:03:57;;;;;;;2.95;1.17;;;22.20;65.60;;;;;;5093339;28;20103;-78
2022/09/10 10:06:31;;;;;;;3.22;1.00;;;22.20;65.50;;;;;;5091042;28;20028;-73
2022/09/10 10:09:02;;;;;;;1.50;0.77;;;22.10;65.90;;;;;;5072756;28;20453;-73
2022/09/10 10:11:39;;;;;;;1.92;1.02;;;22.00;66.20;;;;;;5092655;28;20024;-73
2022/09/10 10:14:37;;;;;;;2.40;1.10;;;21.90;66.50;;;;;;5071465;28;20013;-74
2022/09/10 10:17:06;;;;;;;2.28;0.75;;;21.90;66.60;;;;;;5105114;28;20071;-74
2022/09/10 10:19:38;;;;;;;3.78;1.00;;;21.90;66.70;;;;;;5095697;28;20019;-74
2022/09/10 10:22:24;;;;;;;2.22;0.82;;;21.90;66.90;;;;;;5096632;28;20039;-74
2022/09/10 10:24:51;;;;;;;1.42;0.80;;;21.80;67.80;;;;;;5071850;28;20056;-74
2022/09/10 10:27:17;;;;;;;2.30;0.60;;;21.80;66.80;;;;;;5078426;28;20105;-73
2022/09/10 10:30:22;;;;;;;0.77;0.50;;;21.80;66.90;;;;;;5090961;28;20019;-74
2022/09/10 10:33:14;;;;;;;1.42;0.90;;;21.80;67.20;;;;;;5077882;28;20035;-73
2022/09/10 10:35:48;;;;;;;1.73;0.85;;;21.70;67.20;;;;;;5075588;28;20024;-74
2022/09/10 10:38:33;;;;;;;2.00;0.80;;;21.70;67.20;;;;;;5078051;28;20043;-74
2022/09/10 10:41:30;;;;;;;13.30;2.10;;;21.70;67.30;;;;;;5074675;28;20441;-73
2022/09/10 10:44:09;;;;;;;14.00;3.10;;;21.70;67.50;;;;;;5075566;28;20029;-73
2022/09/10 10:46:40;;;;;;;14.82;3.15;;;21.70;67.20;;;;;;5074504;28;20429;-73
2022/09/10 10:49:21;;;;;;;17.60;2.78;;;21.60;67.20;;;;;;5079777;28;20052;-76
2022/09/10 10:51:50;;;;;;;13.60;2.97;;;21.60;66.90;;;;;;5059413;28;20406;-75
2022/09/10 10:54:25;;;;;;;11.43;2.50;;;21.70;66.30;;;;;;5085340;28;20510;-75
2022/09/10 10:57:29;;;;;;;15.40;2.50;;;21.80;66.30;;;;;;5081519;28;20047;-74
2022/09/10 11:00:11;;;;;;;6.95;2.33;;;21.90;66.00;;;;;;5033908;28;20041;-75
2022/09/10 11:02:43;;;;;;;11.00;2.63;;;21.90;65.60;;;;;;5017427;28;20104;-76
2022/09/10 11:05:31;;;;;;;8.98;2.85;;;21.90;65.40;;;;;;5017140;28;20180;-75
2022/09/10 11:07:58;;;;;;;10.18;2.58;;;22.00;65.50;;;;;;5034480;28;20090;-75
2022/09/10 11:10:41;;;;;;;8.90;3.05;;;22.00;65.00;;;;;;5037169;28;20159;-76
2022/09/10 11:13:12;;;;;;;4.65;1.70;;;22.10;66.00;;;;;;5053829;28;20032;-75
2022/09/10 11:15:42;;;;;;;7.57;2.05;;;22.20;65.00;;;;;;5036929;28;20075;-76
2022/09/10 11:18:19;;;;;;;9.18;2.78;;;22.20;64.60;;;;;;5053848;28;20021;-76
2022/09/10 11:21:22;;;;;;;8.70;1.85;;;22.20;64.40;;;;;;5036906;28;20029;-76
2022/09/10 11:23:55;;;;;;;10.82;2.30;;;22.20;64.40;;;;;;5044262;28;20038;-76
2022/09/10 11:26:22;;;;;;;;;;;22.20;64.20;;;;;;5034020;28;20038;-75
2022/09/10 11:29:02;;;;;;;6.25;1.70;;;22.30;63.90;;;;;;5050136;28;19909;-76
2022/09/10 11:31:45;;;;;;;8.10;2.20;;;22.30;63.60;;;;;;5033666;28;20060;-75
2022/09/10 11:34:30;;;;;;;;;;;22.30;63.50;;;;;;5067759;28;20039;-75
2022/09/10 11:37:01;;;;;;;4.35;2.00;;;22.40;63.30;;;;;;5095515;28;19949;-75
2022/09/10 11:39:37;;;;;;;6.78;2.20;;;22.30;62.80;;;;;;5077943;28;20020;-75
2022/09/10 11:42:11;;;;;;;7.10;1.63;;;22.40;63.00;;;;;;5078165;28;20016;-74
2022/09/10 11:44:42;;;;;;;5.93;2.08;;;22.40;62.60;;;;;;5078103;28;20407;-75
2022/09/10 11:47:14;;;;;;;4.15;1.60;;;22.40;62.40;;;;;;5093079;28;20038;-75
2022/09/10 11:49:43;;;;;;;6.57;1.60;;;22.40;62.40;;;;;;5094007;28;20040;-75
2022/09/10 11:52:10;;;;;;;5.13;1.70;;;22.50;63.20;;;;;;5078192;28;20078;-76
2022/09/10 11:54:37;;;;;;;3.78;1.75;;;22.50;62.30;;;;;;5090337;28;20048;-75
2022/09/10 11:57:28;;;;;;;4.25;1.10;;;22.50;62.30;;;;;;5074942;28;20541;-75
2022/09/10 12:00:14;;;;;;;6.70;1.40;;;22.50;61.90;;;;;;5073620;28;20052;-75
2022/09/10 12:03:08;;;;;;;4.28;1.33;;;22.50;61.60;;;;;;5073603;28;20396;-75
2022/09/10 12:05:45;;;;;;;5.18;1.30;;;22.60;61.50;;;;;;5074781;28;20056;-75
2022/09/10 12:08:32;;;;;;;4.78;1.65;;;22.60;61.50;;;;;;5078218;28;20471;-74
2022/09/10 12:11:18;;;;;;;3.40;1.30;;;22.60;60.80;;;;;;5076771;28;20390;-75
2022/09/10 12:13:44;;;;;;;3.58;1.33;;;22.70;60.80;;;;;;5093555;28;20020;-75
2022/09/10 12:16:19;;;;;;;5.38;1.15;;;22.70;61.10;;;;;;5084186;28;20031;-75
2022/09/10 12:18:47;;;;;;;3.65;1.30;;;22.70;60.90;;;;;;5115178;28;20027;-75
2022/09/10 12:21:40;;;;;;;3.33;1.02;;;22.80;61.40;;;;;;5113904;28;20028;-75
2022/09/10 12:24:30;;;;;;;3.83;0.95;;;22.70;60.60;;;;;;5114082;28;20024;-74
2022/09/10 12:26:56;;;;;;;1.88;1.00;;;22.70;60.00;;;;;;5113660;28;20023;-74
2022/09/10 12:29:39;;;;;;;4.55;1.25;;;22.60;60.20;;;;;;5113677;28;20024;-74
2022/09/10 12:32:08;;;;;;;3.13;1.10;;;22.60;61.00;;;;;;5114059;28;20016;-74
2022/09/10 12:34:35;;;;;;;3.22;0.98;;;22.50;60.90;;;;;;5109340;28;20023;-73
2022/09/10 12:37:00;;;;;;;4.05;1.42;;;22.50;61.40;;;;;;5093169;28;20055;-74
2022/09/10 12:39:26;;;;;;;2.28;1.00;;;22.50;61.20;;;;;;5094227;28;20056;-73
2022/09/10 12:41:53;;;;;;;4.75;1.38;;;22.50;61.00;;;;;;5093008;28;20024;-73
2022/09/10 12:44:34;;;;;;;3.88;1.50;;;22.40;61.40;;;;;;5094374;28;20024;-74
2022/09/10 12:47:15;;;;;;;3.38;1.15;;;22.40;61.80;;;;;;5093180;28;20039;-73
2022/09/10 12:49:46;;;;;;;5.25;1.55;;;22.40;62.00;;;;;;5093736;28;20143;-73
2022/09/10 12:52:19;;;;;;;5.97;1.52;;;22.40;62.30;;;;;;5083078;28;20036;-72
2022/09/10 12:54:45;;;;;;;3.72;1.70;;;22.40;62.80;;;;;;5072775;28;20099;-73
2022/09/10 12:57:20;;;;;;;2.78;1.50;;;22.40;62.80;;;;;;5075404;28;20029;-72
2022/09/10 13:00:18;;;;;;;4.22;1.58;;;22.40;63.00;;;;;;5092438;28;20024;-72
2022/09/10 13:02:52;;;;;;;7.03;1.60;;;22.40;63.10;;;;;;5092802;28;20030;-73
2022/09/10 13:05:21;;;;;;;5.13;1.67;;;22.40;63.50;;;;;;5075996;28;20043;-74